Time;durP1;ratioP1;P1;durP2;ratioP2;P2;SDS_P1;SDS_P2;PMS_P1;PMS_P2;Temp;Humidity;BMP_temperature;BMP_pressure;BME280_temperature;BME280_humidity;BME280_pressure;Samples;Min_cycle;Max_cycle;Signal;HPM_P1;HPM_P2
2023/09/22 00:00:16;;;;;;;1.25;0.60;;;;;;;;;;468107;28;1291;-72
2023/09/22 00:00:32;;;;;;;1.25;0.60;;;;;;;;;;470019;28;1066;-72
2023/09/22 00:00:47;;;;;;;1.20;0.60;;;;;;;;;;471338;28;1148;-73
2023/09/22 00:01:03;;;;;;;1.00;0.50;;;;;;;;;;468848;28;987;-72
2023/09/22 00:01:20;;;;;;;1.60;0.63;;;;;;;;;;469526;28;1407;-72
2023/09/22 00:01:35;;;;;;;1.90;0.68;;;;;;;;;;471155;28;1355;-72
2023/09/22 00:01:52;;;;;;;1.10;0.60;;;;;;;;;;469857;28;1121;-72
2023/09/22 00:02:07;;;;;;;1.05;0.55;;;;;;;;;;471675;28;1187;-73
2023/09/22 00:02:23;;;;;;;1.30;0.60;;;;;;;;;;473621;28;888;-72
2023/09/22 00:02:39;;;;;;;1.45;0.60;;;;;;;;;;470567;28;1235;-72
2023/09/22 00:02:54;;;;;;;1.90;0.60;;;;;;;;;;469933;28;1013;-72
2023/09/22 00:03:10;;;;;;;1.83;0.70;;;;;;;;;;470110;28;1303;-72
2023/09/22 00:03:27;;;;;;;1.20;0.60;;;;;;;;;;466873;28;1060;-73
2023/09/22 00:03:42;;;;;;;1.55;0.60;;;;;;;;;;467180;28;1248;-72
2023/09/22 00:03:59;;;;;;;2.07;0.63;;;;;;;;;;465838;28;1231;-72
2023/09/22 00:04:14;;;;;;;1.30;0.60;;;;;;;;;;462521;28;1444;-72
2023/09/22 00:04:30;;;;;;;1.70;0.67;;;;;;;;;;462960;28;1315;-72
2023/09/22 00:04:45;;;;;;;2.15;0.70;;;;;;;;;;461816;28;1206;-73
2023/09/22 00:05:01;;;;;;;1.13;0.60;;;;;;;;;;464492;28;1213;-72
2023/09/22 00:05:17;;;;;;;1.67;0.60;;;;;;;;;;465136;28;975;-72
2023/09/22 00:05:32;;;;;;;2.20;0.65;;;;;;;;;;465682;28;1122;-72
2023/09/22 00:05:47;;;;;;;1.73;0.70;;;;;;;;;;469104;28;969;-72
2023/09/22 00:06:03;;;;;;;1.30;0.60;;;;;;;;;;466459;28;1164;-72
2023/09/22 00:06:19;;;;;;;0.98;0.50;;;;;;;;;;468448;28;1138;-73
2023/09/22 00:06:34;;;;;;;1.02;0.60;;;;;;;;;;466610;28;1715;-72
2023/09/22 00:06:49;;;;;;;1.13;0.60;;;;;;;;;;465519;28;1187;-73
2023/09/22 00:07:06;;;;;;;1.37;0.60;;;;;;;;;;465779;28;1156;-72
2023/09/22 00:07:21;;;;;;;1.20;0.60;;;;;;;;;;465936;28;1686;-72
2023/09/22 00:07:37;;;;;;;1.48;0.63;;;;;;;;;;468331;28;1175;-72
2023/09/22 00:07:53;;;;;;;2.00;0.70;;;;;;;;;;469404;28;1193;-72
2023/09/22 00:08:09;;;;;;;1.17;0.50;;;;;;;;;;473284;28;1064;-72
2023/09/22 00:08:24;;;;;;;0.90;0.50;;;;;;;;;;471349;28;1216;-71
2023/09/22 00:08:39;;;;;;;1.92;0.60;;;;;;;;;;468162;28;1251;-73
2023/09/22 00:08:56;;;;;;;2.23;0.60;;;;;;;;;;476359;28;1238;-72
2023/09/22 00:09:11;;;;;;;1.55;0.50;;;;;;;;;;480214;28;1128;-72
2023/09/22 00:09:26;;;;;;;2.00;0.60;;;;;;;;;;470291;28;1036;-72
2023/09/22 00:09:42;;;;;;;2.10;0.70;;;;;;;;;;467745;28;1084;-72
2023/09/22 00:09:57;;;;;;;1.48;0.60;;;;;;;;;;466936;28;1401;-72
2023/09/22 00:10:12;;;;;;;1.40;0.60;;;;;;;;;;468884;28;1099;-72
2023/09/22 00:10:28;;;;;;;1.30;0.60;;;;;;;;;;468222;28;1133;-72
2023/09/22 00:10:43;;;;;;;1.17;0.65;;;;;;;;;;468275;28;1168;-72
2023/09/22 00:10:59;;;;;;;1.50;0.67;;;;;;;;;;465634;28;1073;-72
2023/09/22 00:11:14;;;;;;;1.47;0.60;;;;;;;;;;469978;28;1295;-72
2023/09/22 00:11:30;;;;;;;1.40;0.60;;;;;;;;;;466741;28;1106;-72
2023/09/22 00:11:45;;;;;;;1.42;0.70;;;;;;;;;;464495;28;1498;-72
2023/09/22 00:12:01;;;;;;;2.07;0.70;;;;;;;;;;466552;28;894;-72
2023/09/22 00:12:16;;;;;;;2.17;0.63;;;;;;;;;;466512;28;891;-72
2023/09/22 00:12:32;;;;;;;2.20;0.70;;;;;;;;;;467291;28;1322;-72
2023/09/22 00:12:47;;;;;;;1.95;0.70;;;;;;;;;;468874;28;1103;-72
2023/09/22 00:13:04;;;;;;;1.53;0.63;;;;;;;;;;469342;28;1213;-73
2023/09/22 00:13:20;;;;;;;1.60;0.63;;;;;;;;;;468628;28;888;-72
2023/09/22 00:13:35;;;;;;;1.50;0.60;;;;;;;;;;467551;28;1243;-72
2023/09/22 00:13:51;;;;;;;1.13;0.60;;;;;;;;;;467723;28;1187;-72
2023/09/22 00:14:08;;;;;;;0.90;0.60;;;;;;;;;;467570;28;1155;-72
2023/09/22 00:14:24;;;;;;;0.80;0.50;;;;;;;;;;470779;28;915;-72
2023/09/22 00:14:39;;;;;;;0.80;0.50;;;;;;;;;;466232;28;1140;-72
2023/09/22 00:14:54;;;;;;;1.30;0.60;;;;;;;;;;464316;28;1036;-72
2023/09/22 00:15:10;;;;;;;2.10;0.60;;;;;;;;;;467638;28;971;-71
2023/09/22 00:15:27;;;;;;;1.98;0.60;;;;;;;;;;465963;28;1118;-72
2023/09/22 00:15:42;;;;;;;1.25;0.70;;;;;;;;;;467296;28;974;-72
2023/09/22 00:15:57;;;;;;;1.40;0.70;;;;;;;;;;467774;28;1580;-72
2023/09/22 00:16:13;;;;;;;1.40;0.63;;;;;;;;;;467782;28;1057;-72
2023/09/22 00:16:28;;;;;;;1.23;0.60;;;;;;;;;;467480;28;1334;-72
2023/09/22 00:16:43;;;;;;;1.20;0.52;;;;;;;;;;466566;28;1334;-72
2023/09/22 00:16:59;;;;;;;1.17;0.60;;;;;;;;;;467314;28;1206;-72
2023/09/22 00:17:14;;;;;;;1.27;0.60;;;;;;;;;;466936;28;1108;-72
2023/09/22 00:17:29;;;;;;;1.30;0.55;;;;;;;;;;469336;28;1102;-72
2023/09/22 00:17:44;;;;;;;2.03;0.60;;;;;;;;;;466279;28;1237;-72
2023/09/22 00:18:01;;;;;;;3.00;0.70;;;;;;;;;;466841;28;1099;-72
2023/09/22 00:18:17;;;;;;;2.40;0.70;;;;;;;;;;466095;28;1498;-72
2023/09/22 00:18:32;;;;;;;1.17;0.60;;;;;;;;;;469303;28;1954;-72
2023/09/22 00:18:47;;;;;;;1.92;0.57;;;;;;;;;;467586;28;1151;-72
2023/09/22 00:19:05;;;;;;;1.97;0.60;;;;;;;;;;468712;28;1104;-72
2023/09/22 00:19:20;;;;;;;1.75;0.80;;;;;;;;;;468129;28;1623;-72
2023/09/22 00:19:36;;;;;;;1.97;0.97;;;;;;;;;;467250;28;1375;-72
2023/09/22 00:19:52;;;;;;;1.48;0.80;;;;;;;;;;470334;28;1432;-72
2023/09/22 00:20:08;;;;;;;1.40;0.63;;;;;;;;;;465253;28;1180;-72
2023/09/22 00:20:24;;;;;;;1.45;0.60;;;;;;;;;;468589;28;1584;-72
2023/09/22 00:20:39;;;;;;;1.73;0.75;;;;;;;;;;466856;28;1388;-72
2023/09/22 00:20:55;;;;;;;1.97;0.70;;;;;;;;;;467377;28;1476;-72
2023/09/22 00:21:10;;;;;;;1.63;0.63;;;;;;;;;;468289;28;1430;-72
2023/09/22 00:21:25;;;;;;;1.27;0.80;;;;;;;;;;470091;28;1378;-72
2023/09/22 00:21:41;;;;;;;1.57;0.73;;;;;;;;;;475320;28;1543;-72
2023/09/22 00:21:57;;;;;;;2.22;0.70;;;;;;;;;;474943;28;1388;-72
2023/09/22 00:22:12;;;;;;;2.80;0.80;;;;;;;;;;467351;28;1347;-71
2023/09/22 00:22:27;;;;;;;1.95;0.70;;;;;;;;;;462837;28;1389;-73
2023/09/22 00:22:43;;;;;;;1.13;0.70;;;;;;;;;;465195;28;1506;-72
2023/09/22 00:22:58;;;;;;;2.28;0.70;;;;;;;;;;464579;28;1464;-72
2023/09/22 00:23:15;;;;;;;2.60;0.77;;;;;;;;;;465245;28;1462;-72
2023/09/22 00:23:30;;;;;;;1.63;0.80;;;;;;;;;;464048;28;1388;-72
2023/09/22 00:23:45;;;;;;;1.67;0.80;;;;;;;;;;465018;28;1281;-72
2023/09/22 00:24:03;;;;;;;2.27;0.80;;;;;;;;;;465753;28;1335;-71
2023/09/22 00:24:19;;;;;;;1.67;0.70;;;;;;;;;;464653;28;1304;-72
2023/09/22 00:24:35;;;;;;;0.52;0.50;;;;;;;;;;467081;28;1555;-72
2023/09/22 00:24:51;;;;;;;0.73;0.60;;;;;;;;;;470157;28;1325;-72
2023/09/22 00:25:09;;;;;;;0.90;0.55;;;;;;;;;;468245;28;1453;-73
2023/09/22 00:25:24;;;;;;;1.30;0.70;;;;;;;;;;467504;28;1326;-72
2023/09/22 00:25:39;;;;;;;2.08;0.77;;;;;;;;;;467344;28;1386;-71
2023/09/22 00:25:54;;;;;;;1.57;0.60;;;;;;;;;;467338;28;1179;-72
2023/09/22 00:26:10;;;;;;;1.07;0.50;;;;;;;;;;465097;28;1178;-72
2023/09/22 00:26:25;;;;;;;1.70;0.60;;;;;;;;;;465770;28;1120;-72
2023/09/22 00:26:40;;;;;;;1.75;0.60;;;;;;;;;;466771;28;1627;-72
2023/09/22 00:26:55;;;;;;;1.30;0.70;;;;;;;;;;465853;28;1429;-72
2023/09/22 00:27:11;;;;;;;0.83;0.60;;;;;;;;;;469393;28;1261;-72
2023/09/22 00:27:27;;;;;;;0.60;0.50;;;;;;;;;;468814;28;947;-72
2023/09/22 00:27:42;;;;;;;0.70;0.53;;;;;;;;;;466002;28;2396;-72
2023/09/22 00:27:57;;;;;;;1.30;0.60;;;;;;;;;;467017;28;1434;-72
2023/09/22 00:28:12;;;;;;;1.63;0.60;;;;;;;;;;466414;28;1321;-72
2023/09/22 00:28:28;;;;;;;1.70;0.70;;;;;;;;;;466648;28;1254;-72
2023/09/22 00:28:43;;;;;;;1.20;0.60;;;;;;;;;;467899;28;1096;-72
2023/09/22 00:28:59;;;;;;;0.98;0.60;;;;;;;;;;467716;28;1059;-72
2023/09/22 00:29:14;;;;;;;1.50;0.70;;;;;;;;;;468791;28;1116;-72
2023/09/22 00:29:30;;;;;;;1.47;0.60;;;;;;;;;;470024;28;1091;-72
2023/09/22 00:29:45;;;;;;;1.30;0.60;;;;;;;;;;469737;28;1169;-72
2023/09/22 00:30:01;;;;;;;1.20;0.60;;;;;;;;;;466720;28;1398;-72
2023/09/22 00:30:16;;;;;;;1.35;0.57;;;;;;;;;;467153;28;1126;-72
2023/09/22 00:30:31;;;;;;;1.70;0.60;;;;;;;;;;467735;28;918;-72
2023/09/22 00:30:46;;;;;;;1.70;0.60;;;;;;;;;;468668;28;1242;-72
2023/09/22 00:31:02;;;;;;;1.60;0.70;;;;;;;;;;468949;28;1132;-72
2023/09/22 00:31:18;;;;;;;1.70;0.60;;;;;;;;;;469059;28;1324;-72
2023/09/22 00:31:33;;;;;;;1.60;0.60;;;;;;;;;;467320;28;1068;-72
2023/09/22 00:31:48;;;;;;;2.83;0.70;;;;;;;;;;466863;28;1240;-72
2023/09/22 00:32:04;;;;;;;2.97;0.70;;;;;;;;;;467846;28;977;-72
2023/09/22 00:32:20;;;;;;;1.75;0.60;;;;;;;;;;466277;28;1303;-72
2023/09/22 00:32:35;;;;;;;1.37;0.60;;;;;;;;;;466624;28;1135;-72
2023/09/22 00:32:52;;;;;;;1.45;0.60;;;;;;;;;;465421;28;1329;-72
2023/09/22 00:33:07;;;;;;;1.60;0.60;;;;;;;;;;466524;28;1160;-72
2023/09/22 00:33:22;;;;;;;1.60;0.65;;;;;;;;;;464251;28;1197;-72
2023/09/22 00:33:38;;;;;;;1.57;0.53;;;;;;;;;;466510;28;1082;-72
2023/09/22 00:33:53;;;;;;;1.50;0.53;;;;;;;;;;466647;28;1003;-72
2023/09/22 00:34:08;;;;;;;1.77;0.70;;;;;;;;;;464543;28;1160;-72
2023/09/22 00:34:24;;;;;;;1.30;0.70;;;;;;;;;;465704;28;1123;-72
2023/09/22 00:34:40;;;;;;;0.97;0.60;;;;;;;;;;467202;28;1114;-72
2023/09/22 00:34:55;;;;;;;1.77;0.70;;;;;;;;;;464554;28;1561;-71
2023/09/22 00:35:12;;;;;;;2.00;0.80;;;;;;;;;;466363;28;1797;-72
2023/09/22 00:35:27;;;;;;;1.23;0.60;;;;;;;;;;468455;28;1402;-72
2023/09/22 00:35:42;;;;;;;1.30;0.60;;;;;;;;;;466443;28;989;-72
2023/09/22 00:36:04;;;;;;;1.27;0.70;;;;;;;;;;464404;28;1198;-72
2023/09/22 00:36:19;;;;;;;1.85;0.80;;;;;;;;;;463656;28;1603;-72
2023/09/22 00:36:34;;;;;;;1.67;0.70;;;;;;;;;;463518;28;1342;-72
2023/09/22 00:36:52;;;;;;;0.90;0.60;;;;;;;;;;462948;28;1154;-73
2023/09/22 00:37:07;;;;;;;0.98;0.57;;;;;;;;;;463853;28;1462;-72
2023/09/22 00:37:23;;;;;;;1.37;0.60;;;;;;;;;;463195;28;1065;-72
2023/09/22 00:37:40;;;;;;;1.63;0.60;;;;;;;;;;462882;28;1598;-72
2023/09/22 00:37:55;;;;;;;3.08;0.70;;;;;;;;;;463002;28;1466;-72
2023/09/22 00:38:11;;;;;;;2.13;0.60;;;;;;;;;;462538;28;1940;-72
2023/09/22 00:38:26;;;;;;;1.88;0.55;;;;;;;;;;464280;28;1066;-73
2023/09/22 00:38:42;;;;;;;1.90;0.60;;;;;;;;;;466081;28;1986;-72
2023/09/22 00:38:57;;;;;;;1.23;0.60;;;;;;;;;;466635;28;2087;-72
2023/09/22 00:39:12;;;;;;;1.27;0.60;;;;;;;;;;466568;28;1943;-72
2023/09/22 00:39:28;;;;;;;1.57;0.60;;;;;;;;;;466886;28;891;-72
2023/09/22 00:39:43;;;;;;;1.53;0.60;;;;;;;;;;467961;28;1126;-72
2023/09/22 00:39:59;;;;;;;1.50;0.60;;;;;;;;;;470190;28;925;-72
2023/09/22 00:40:15;;;;;;;1.70;0.60;;;;;;;;;;470766;28;1301;-72
2023/09/22 00:40:30;;;;;;;2.17;0.70;;;;;;;;;;467410;28;1794;-72
2023/09/22 00:40:46;;;;;;;2.30;0.80;;;;;;;;;;465734;28;1286;-72
2023/09/22 00:41:01;;;;;;;1.43;0.70;;;;;;;;;;464150;28;1186;-72
2023/09/22 00:41:16;;;;;;;1.30;0.70;;;;;;;;;;463895;28;1061;-72
2023/09/22 00:41:32;;;;;;;3.50;0.80;;;;;;;;;;464544;28;1042;-72
2023/09/22 00:41:47;;;;;;;3.03;0.70;;;;;;;;;;465429;28;985;-72
2023/09/22 00:42:05;;;;;;;1.53;0.57;;;;;;;;;;465758;28;1116;-72
2023/09/22 00:42:21;;;;;;;1.90;0.60;;;;;;;;;;469393;28;1144;-72
2023/09/22 00:42:37;;;;;;;1.20;0.60;;;;;;;;;;468210;28;1205;-72
2023/09/22 00:43:06;;;;;;;1.27;0.60;;;;;;;;;;468379;28;994;-72
2023/09/22 00:43:21;;;;;;;1.73;0.60;;;;;;;;;;470364;28;1555;-72
2023/09/22 00:43:36;;;;;;;1.40;0.47;;;;;;;;;;468691;28;1196;-72
2023/09/22 00:43:52;;;;;;;0.80;0.50;;;;;;;;;;467613;28;1438;-72
2023/09/22 00:44:07;;;;;;;0.93;0.60;;;;;;;;;;468065;28;1263;-72
2023/09/22 00:44:22;;;;;;;0.93;0.60;;;;;;;;;;468814;28;1389;-72
2023/09/22 00:44:38;;;;;;;1.20;0.60;;;;;;;;;;470099;28;1080;-72
2023/09/22 00:44:53;;;;;;;1.80;0.70;;;;;;;;;;468075;28;1262;-71
2023/09/22 00:45:09;;;;;;;2.08;0.70;;;;;;;;;;469878;28;1213;-72
2023/09/22 00:45:24;;;;;;;1.73;0.70;;;;;;;;;;468670;28;1184;-72
2023/09/22 00:45:42;;;;;;;1.58;0.63;;;;;;;;;;467836;28;902;-72
2023/09/22 00:45:58;;;;;;;1.50;0.45;;;;;;;;;;471218;28;917;-72
2023/09/22 00:46:16;;;;;;;1.20;0.50;;;;;;;;;;470046;28;1063;-72
2023/09/22 00:46:32;;;;;;;1.60;0.60;;;;;;;;;;468995;28;1304;-71
2023/09/22 00:46:48;;;;;;;2.00;0.60;;;;;;;;;;469676;28;1316;-72
2023/09/22 00:47:08;;;;;;;1.90;0.70;;;;;;;;;;473050;28;906;-72
2023/09/22 00:47:23;;;;;;;2.15;0.60;;;;;;;;;;467967;28;1125;-72
2023/09/22 00:47:38;;;;;;;1.77;0.60;;;;;;;;;;467882;28;1123;-72
2023/09/22 00:47:54;;;;;;;2.20;0.70;;;;;;;;;;467859;28;1353;-72
2023/09/22 00:48:10;;;;;;;2.20;0.70;;;;;;;;;;467474;28;933;-72
2023/09/22 00:48:29;;;;;;;1.75;0.68;;;;;;;;;;467121;28;1118;-72
2023/09/22 00:48:45;;;;;;;1.75;0.68;;;;;;;;;;467658;28;1114;-72
2023/09/22 00:49:01;;;;;;;1.70;0.60;;;;;;;;;;467067;28;1165;-72
2023/09/22 00:49:17;;;;;;;1.40;0.60;;;;;;;;;;467691;28;1306;-72
2023/09/22 00:49:33;;;;;;;1.60;0.70;;;;;;;;;;469178;28;1175;-72
2023/09/22 00:49:49;;;;;;;2.30;0.70;;;;;;;;;;467621;28;1240;-72
2023/09/22 00:50:09;;;;;;;2.03;0.60;;;;;;;;;;468635;28;1335;-72
2023/09/22 00:50:24;;;;;;;2.40;0.50;;;;;;;;;;469233;28;1018;-72
2023/09/22 00:50:40;;;;;;;2.35;0.63;;;;;;;;;;470665;28;1287;-72
2023/09/22 00:50:56;;;;;;;1.60;0.73;;;;;;;;;;469453;28;1189;-72
2023/09/22 00:51:12;;;;;;;1.98;0.70;;;;;;;;;;472219;28;2289;-72
2023/09/22 00:51:28;;;;;;;1.88;0.60;;;;;;;;;;468884;28;1007;-72
2023/09/22 00:51:44;;;;;;;1.17;0.60;;;;;;;;;;468278;28;1104;-72
2023/09/22 00:52:01;;;;;;;0.97;0.60;;;;;;;;;;468500;28;1322;-72
2023/09/22 00:52:18;;;;;;;1.30;0.60;;;;;;;;;;468181;28;1096;-72
2023/09/22 00:52:34;;;;;;;1.35;0.50;;;;;;;;;;469409;28;1140;-72
2023/09/22 00:52:49;;;;;;;1.70;0.70;;;;;;;;;;465556;28;1219;-72
2023/09/22 00:53:05;;;;;;;2.30;0.60;;;;;;;;;;466408;28;1217;-72
2023/09/22 00:53:22;;;;;;;2.43;0.60;;;;;;;;;;464324;28;1241;-72
2023/09/22 00:53:39;;;;;;;1.63;0.70;;;;;;;;;;465733;28;1268;-72
2023/09/22 00:53:55;;;;;;;1.30;0.70;;;;;;;;;;467610;28;1139;-72
2023/09/22 00:54:11;;;;;;;1.17;0.60;;;;;;;;;;466927;28;2171;-73
2023/09/22 00:54:26;;;;;;;1.00;0.50;;;;;;;;;;468866;28;1198;-72
2023/09/22 00:54:42;;;;;;;1.20;0.60;;;;;;;;;;468086;28;1193;-72
2023/09/22 00:54:58;;;;;;;1.50;0.60;;;;;;;;;;467017;28;1289;-72
2023/09/22 00:55:14;;;;;;;1.50;0.50;;;;;;;;;;465470;28;1280;-72
2023/09/22 00:55:29;;;;;;;1.40;0.60;;;;;;;;;;466863;28;1184;-72
2023/09/22 00:55:48;;;;;;;1.33;0.70;;;;;;;;;;467703;28;1371;-72
2023/09/22 00:56:04;;;;;;;1.05;0.60;;;;;;;;;;469040;28;958;-72
2023/09/22 00:56:21;;;;;;;1.00;0.50;;;;;;;;;;468394;28;1073;-72
2023/09/22 00:56:36;;;;;;;1.52;0.60;;;;;;;;;;467604;28;1255;-72
2023/09/22 00:56:52;;;;;;;1.83;0.80;;;;;;;;;;467478;28;1015;-72
2023/09/22 00:57:07;;;;;;;1.27;0.70;;;;;;;;;;467460;28;1152;-72
2023/09/22 00:57:23;;;;;;;1.27;0.63;;;;;;;;;;467479;28;1067;-72
2023/09/22 00:57:39;;;;;;;1.33;0.63;;;;;;;;;;467205;28;1124;-72
2023/09/22 00:57:54;;;;;;;2.60;0.70;;;;;;;;;;467121;28;1113;-72
2023/09/22 00:58:10;;;;;;;3.20;0.80;;;;;;;;;;466008;28;1043;-72
2023/09/22 00:58:25;;;;;;;1.98;0.60;;;;;;;;;;466511;28;1044;-72
2023/09/22 00:58:41;;;;;;;1.97;0.60;;;;;;;;;;465171;28;2005;-72
2023/09/22 00:58:56;;;;;;;1.63;0.70;;;;;;;;;;461112;28;1186;-71
2023/09/22 00:59:14;;;;;;;1.40;0.88;;;;;;;;;;462326;28;1540;-72
2023/09/22 00:59:33;;;;;;;1.42;0.85;;;;;;;;;;463078;28;1564;-72
2023/09/22 00:59:50;;;;;;;1.30;0.70;;;;;;;;;;462812;28;1332;-71
2023/09/22 01:00:08;;;;;;;1.20;0.60;;;;;;;;;;464424;28;1229;-72
2023/09/22 01:00:24;;;;;;;1.30;0.60;;;;;;;;;;465622;28;1149;-71
2023/09/22 01:00:42;;;;;;;1.35;0.60;;;;;;;;;;465670;28;1059;-72
2023/09/22 01:00:58;;;;;;;1.73;0.50;;;;;;;;;;468337;28;1226;-72
2023/09/22 01:01:14;;;;;;;1.27;0.50;;;;;;;;;;466771;28;1299;-72
2023/09/22 01:01:29;;;;;;;2.15;0.70;;;;;;;;;;465768;28;1183;-72
2023/09/22 01:01:45;;;;;;;2.30;0.70;;;;;;;;;;466117;28;1037;-72
2023/09/22 01:02:01;;;;;;;1.17;0.50;;;;;;;;;;465388;28;1111;-72
2023/09/22 01:02:17;;;;;;;0.90;0.57;;;;;;;;;;463572;28;1191;-72
2023/09/22 01:02:32;;;;;;;0.93;0.67;;;;;;;;;;466006;28;1292;-72
2023/09/22 01:02:51;;;;;;;0.93;0.63;;;;;;;;;;468298;28;1240;-72
2023/09/22 01:03:07;;;;;;;1.50;0.70;;;;;;;;;;470272;28;1319;-72
2023/09/22 01:03:22;;;;;;;1.40;0.68;;;;;;;;;;467560;28;1094;-72
2023/09/22 01:03:37;;;;;;;0.90;0.60;;;;;;;;;;466690;28;1367;-72
2023/09/22 01:03:53;;;;;;;1.30;0.63;;;;;;;;;;469797;28;1190;-72
2023/09/22 01:04:09;;;;;;;1.75;0.70;;;;;;;;;;469392;28;1076;-72
2023/09/22 01:04:25;;;;;;;1.88;0.80;;;;;;;;;;468818;28;1263;-72
2023/09/22 01:04:40;;;;;;;1.90;0.80;;;;;;;;;;469236;28;1068;-72
2023/09/22 01:04:56;;;;;;;2.10;0.70;;;;;;;;;;467870;28;1022;-72
2023/09/22 01:05:11;;;;;;;1.70;0.70;;;;;;;;;;466743;28;1103;-72
2023/09/22 01:05:27;;;;;;;1.37;0.63;;;;;;;;;;467907;28;1691;-72
2023/09/22 01:05:43;;;;;;;2.00;0.70;;;;;;;;;;468778;28;1295;-72
2023/09/22 01:05:58;;;;;;;1.77;0.60;;;;;;;;;;466247;28;1304;-72
2023/09/22 01:06:14;;;;;;;1.03;0.50;;;;;;;;;;467292;28;958;-72
2023/09/22 01:06:30;;;;;;;1.30;0.60;;;;;;;;;;466461;28;1124;-71
2023/09/22 01:06:46;;;;;;;1.27;0.60;;;;;;;;;;465228;28;1088;-72
2023/09/22 01:07:01;;;;;;;1.60;0.60;;;;;;;;;;466111;28;1063;-72
2023/09/22 01:07:17;;;;;;;1.93;0.70;;;;;;;;;;467595;28;1112;-72
2023/09/22 01:07:32;;;;;;;2.55;0.75;;;;;;;;;;470255;28;1068;-72
2023/09/22 01:07:48;;;;;;;2.27;0.70;;;;;;;;;;469789;28;949;-72
2023/09/22 01:08:03;;;;;;;1.13;0.68;;;;;;;;;;470688;28;1007;-72
2023/09/22 01:08:18;;;;;;;1.27;0.60;;;;;;;;;;471295;28;895;-72
2023/09/22 01:08:34;;;;;;;1.53;0.70;;;;;;;;;;470497;28;1039;-72
2023/09/22 01:08:49;;;;;;;1.98;0.70;;;;;;;;;;468311;28;1262;-72
2023/09/22 01:09:06;;;;;;;1.77;0.60;;;;;;;;;;466679;28;1208;-72
2023/09/22 01:09:21;;;;;;;1.08;0.63;;;;;;;;;;466017;28;1172;-72
2023/09/22 01:09:41;;;;;;;0.83;0.50;;;;;;;;;;466337;28;1152;-72
2023/09/22 01:10:07;;;;;;;0.80;0.60;;;;;;;;;;466108;28;1584;-72
2023/09/22 01:10:23;;;;;;;1.10;0.60;;;;;;;;;;466349;28;1411;-72
2023/09/22 01:10:40;;;;;;;1.70;0.63;;;;;;;;;;468328;28;905;-72
2023/09/22 01:10:57;;;;;;;1.20;0.50;;;;;;;;;;469363;28;1287;-72
2023/09/22 01:11:13;;;;;;;1.35;0.63;;;;;;;;;;470944;28;903;-72
2023/09/22 01:11:31;;;;;;;2.00;0.70;;;;;;;;;;468645;28;1252;-72
2023/09/22 01:11:47;;;;;;;2.20;0.60;;;;;;;;;;467180;28;1263;-72
2023/09/22 01:12:03;;;;;;;2.10;0.70;;;;;;;;;;468702;28;1082;-72
2023/09/22 01:12:19;;;;;;;2.60;0.60;;;;;;;;;;465369;28;1482;-71
2023/09/22 01:12:34;;;;;;;2.80;0.60;;;;;;;;;;464754;28;1281;-72
2023/09/22 01:12:51;;;;;;;1.80;0.70;;;;;;;;;;467188;28;1150;-72
2023/09/22 01:13:06;;;;;;;1.83;0.80;;;;;;;;;;467608;28;907;-72
2023/09/22 01:13:22;;;;;;;1.63;0.73;;;;;;;;;;465827;28;1327;-72
2023/09/22 01:13:37;;;;;;;1.95;0.80;;;;;;;;;;465015;28;1395;-72
2023/09/22 01:13:52;;;;;;;2.30;0.80;;;;;;;;;;464561;28;1123;-72
2023/09/22 01:14:08;;;;;;;1.70;0.70;;;;;;;;;;466826;28;1252;-72
2023/09/22 01:14:23;;;;;;;1.40;0.70;;;;;;;;;;467302;28;1104;-72
2023/09/22 01:14:38;;;;;;;1.17;0.70;;;;;;;;;;466729;28;1248;-72
2023/09/22 01:14:54;;;;;;;1.20;0.70;;;;;;;;;;466688;28;1251;-72
2023/09/22 01:15:09;;;;;;;1.87;0.80;;;;;;;;;;466269;28;1164;-72
2023/09/22 01:15:24;;;;;;;2.10;0.80;;;;;;;;;;467683;28;1146;-72
2023/09/22 01:15:42;;;;;;;1.40;0.60;;;;;;;;;;466605;28;1302;-72
2023/09/22 01:15:58;;;;;;;1.30;0.70;;;;;;;;;;465953;28;1734;-72
2023/09/22 01:16:13;;;;;;;1.42;0.70;;;;;;;;;;464955;28;1282;-72
2023/09/22 01:16:29;;;;;;;1.83;0.60;;;;;;;;;;463048;28;1156;-72
2023/09/22 01:16:45;;;;;;;2.20;0.70;;;;;;;;;;462982;28;1217;-72
2023/09/22 01:17:02;;;;;;;2.20;0.70;;;;;;;;;;465415;28;1070;-72
2023/09/22 01:17:18;;;;;;;1.60;0.65;;;;;;;;;;466639;28;1157;-72
2023/09/22 01:17:34;;;;;;;2.40;0.70;;;;;;;;;;466522;28;1150;-72
2023/09/22 01:17:50;;;;;;;2.33;0.80;;;;;;;;;;465797;28;1121;-72
2023/09/22 01:18:05;;;;;;;1.48;0.77;;;;;;;;;;468281;28;886;-73
2023/09/22 01:18:21;;;;;;;1.60;0.70;;;;;;;;;;467288;28;1223;-71
2023/09/22 01:18:37;;;;;;;1.80;0.70;;;;;;;;;;468466;28;1959;-71
2023/09/22 01:18:52;;;;;;;2.10;0.70;;;;;;;;;;468709;28;1054;-72
2023/09/22 01:19:16;;;;;;;2.88;0.60;;;;;;;;;;467595;28;1027;-72
2023/09/22 01:19:32;;;;;;;3.78;0.70;;;;;;;;;;468147;28;907;-72
2023/09/22 01:19:47;;;;;;;3.37;0.70;;;;;;;;;;468019;28;1082;-72
2023/09/22 01:20:03;;;;;;;1.67;0.70;;;;;;;;;;469292;28;1059;-72
2023/09/22 01:20:19;;;;;;;1.63;0.70;;;;;;;;;;470709;28;1093;-73
2023/09/22 01:20:43;;;;;;;2.15;0.70;;;;;;;;;;468829;28;1227;-72
2023/09/22 01:20:59;;;;;;;2.40;0.70;;;;;;;;;;467439;28;1081;-72
2023/09/22 01:21:14;;;;;;;2.08;0.70;;;;;;;;;;467862;28;930;-72
2023/09/22 01:21:31;;;;;;;2.10;0.70;;;;;;;;;;464508;28;1217;-72
2023/09/22 01:21:48;;;;;;;1.85;0.70;;;;;;;;;;466931;28;1113;-72
2023/09/22 01:22:05;;;;;;;1.38;0.70;;;;;;;;;;466262;28;1211;-72
2023/09/22 01:22:20;;;;;;;1.38;0.73;;;;;;;;;;466740;28;925;-72
2023/09/22 01:22:35;;;;;;;1.60;0.70;;;;;;;;;;467470;28;1061;-72
2023/09/22 01:22:51;;;;;;;2.47;0.77;;;;;;;;;;466232;28;1085;-71
2023/09/22 01:23:06;;;;;;;3.10;0.80;;;;;;;;;;466320;28;1033;-72
2023/09/22 01:23:22;;;;;;;2.20;0.70;;;;;;;;;;468530;28;1117;-72
2023/09/22 01:23:37;;;;;;;1.38;0.70;;;;;;;;;;468291;28;1246;-72
2023/09/22 01:23:52;;;;;;;1.60;0.83;;;;;;;;;;467676;28;871;-72
2023/09/22 01:24:09;;;;;;;1.73;0.90;;;;;;;;;;467862;28;1097;-72
2023/09/22 01:24:25;;;;;;;1.50;0.70;;;;;;;;;;469074;28;1154;-72
2023/09/22 01:24:40;;;;;;;2.10;0.63;;;;;;;;;;466343;28;1172;-72
2023/09/22 01:24:56;;;;;;;1.83;0.60;;;;;;;;;;466923;28;1245;-72
2023/09/22 01:25:12;;;;;;;1.33;0.70;;;;;;;;;;469368;28;1147;-72
2023/09/22 01:25:27;;;;;;;1.77;0.82;;;;;;;;;;467297;28;1063;-72
2023/09/22 01:25:43;;;;;;;2.30;0.80;;;;;;;;;;467459;28;1657;-72
2023/09/22 01:25:59;;;;;;;1.85;0.65;;;;;;;;;;467465;28;1073;-72
2023/09/22 01:26:14;;;;;;;1.42;0.70;;;;;;;;;;466565;28;1389;-72
2023/09/22 01:26:29;;;;;;;1.83;0.77;;;;;;;;;;466886;28;1065;-72
2023/09/22 01:26:45;;;;;;;2.13;0.70;;;;;;;;;;466367;28;1160;-72
2023/09/22 01:27:02;;;;;;;1.90;0.70;;;;;;;;;;464344;28;1277;-72
2023/09/22 01:27:18;;;;;;;2.17;0.70;;;;;;;;;;463831;28;1244;-72
2023/09/22 01:27:33;;;;;;;1.90;0.70;;;;;;;;;;466028;28;1279;-72
2023/09/22 01:27:48;;;;;;;1.60;0.70;;;;;;;;;;468461;28;1249;-72
2023/09/22 01:28:04;;;;;;;2.00;0.87;;;;;;;;;;467272;28;1083;-72
2023/09/22 01:28:19;;;;;;;1.48;0.80;;;;;;;;;;465925;28;1134;-72
2023/09/22 01:28:34;;;;;;;1.17;0.60;;;;;;;;;;464096;28;1077;-72
2023/09/22 01:28:50;;;;;;;1.80;0.60;;;;;;;;;;468406;28;1173;-72
2023/09/22 01:29:06;;;;;;;1.70;0.70;;;;;;;;;;466186;28;1251;-72
2023/09/22 01:29:21;;;;;;;1.20;0.70;;;;;;;;;;465692;28;1245;-71
2023/09/22 01:29:37;;;;;;;1.23;0.70;;;;;;;;;;465615;28;1153;-72
2023/09/22 01:29:52;;;;;;;1.45;0.70;;;;;;;;;;464139;28;1166;-72
2023/09/22 01:30:09;;;;;;;1.30;0.70;;;;;;;;;;465603;28;1156;-72
2023/09/22 01:30:24;;;;;;;2.10;0.70;;;;;;;;;;464653;28;1172;-72
2023/09/22 01:30:40;;;;;;;2.17;0.70;;;;;;;;;;466511;28;1084;-72
2023/09/22 01:30:55;;;;;;;1.92;0.63;;;;;;;;;;468995;28;982;-72
2023/09/22 01:31:11;;;;;;;2.43;0.70;;;;;;;;;;470351;28;1078;-72
2023/09/22 01:31:26;;;;;;;2.40;0.75;;;;;;;;;;467370;28;1711;-72
2023/09/22 01:31:42;;;;;;;2.23;0.80;;;;;;;;;;467963;28;1145;-72
2023/09/22 01:31:57;;;;;;;2.85;0.80;;;;;;;;;;468710;28;1174;-72
2023/09/22 01:32:12;;;;;;;2.23;0.80;;;;;;;;;;466937;28;1385;-72
2023/09/22 01:32:28;;;;;;;2.37;0.77;;;;;;;;;;467395;28;1009;-72
2023/09/22 01:32:44;;;;;;;3.45;0.80;;;;;;;;;;465558;28;1165;-72
2023/09/22 01:33:03;;;;;;;2.43;0.73;;;;;;;;;;465370;28;1721;-72
2023/09/22 01:33:20;;;;;;;1.42;0.60;;;;;;;;;;466748;28;1301;-73
2023/09/22 01:33:36;;;;;;;2.20;0.70;;;;;;;;;;469089;28;1431;-72
2023/09/22 01:33:52;;;;;;;2.08;0.68;;;;;;;;;;469568;28;1333;-72
2023/09/22 01:34:08;;;;;;;1.70;0.70;;;;;;;;;;470449;28;1422;-72
2023/09/22 01:34:23;;;;;;;1.15;0.70;;;;;;;;;;467728;28;1284;-72
2023/09/22 01:34:38;;;;;;;1.30;0.60;;;;;;;;;;466469;28;1310;-72
2023/09/22 01:34:54;;;;;;;1.50;0.70;;;;;;;;;;464947;28;1574;-72
2023/09/22 01:35:10;;;;;;;1.73;0.70;;;;;;;;;;465264;28;1530;-72
2023/09/22 01:35:25;;;;;;;1.98;0.70;;;;;;;;;;464121;28;875;-72
2023/09/22 01:35:42;;;;;;;1.80;0.70;;;;;;;;;;465417;28;1127;-72
2023/09/22 01:35:57;;;;;;;2.92;0.70;;;;;;;;;;465387;28;1111;-72
2023/09/22 01:36:16;;;;;;;2.83;0.70;;;;;;;;;;466487;28;1096;-72
2023/09/22 01:36:31;;;;;;;3.08;0.80;;;;;;;;;;466759;28;922;-72
2023/09/22 01:36:47;;;;;;;2.80;0.70;;;;;;;;;;467404;28;1039;-72
2023/09/22 01:37:07;;;;;;;1.43;0.70;;;;;;;;;;468805;28;1140;-72
2023/09/22 01:37:28;;;;;;;1.52;0.70;;;;;;;;;;467597;28;1274;-72
2023/09/22 01:37:51;;;;;;;2.17;0.75;;;;;;;;;;468725;28;1294;-72
2023/09/22 01:38:15;;;;;;;1.70;0.75;;;;;;;;;;468510;28;895;-72
2023/09/22 01:38:30;;;;;;;2.05;0.70;;;;;;;;;;469310;28;1074;-72
2023/09/22 01:38:46;;;;;;;2.17;0.80;;;;;;;;;;466980;28;2009;-72
2023/09/22 01:39:02;;;;;;;1.43;0.77;;;;;;;;;;465932;28;1282;-71
2023/09/22 01:39:17;;;;;;;1.08;0.60;;;;;;;;;;467100;28;1294;-72